createdAt,value
2018-11-11T00:00:12.517Z,27.23
2018-11-11T00:02:41.849Z,27.53
2018-11-11T00:05:11.438Z,28.53
2018-11-11T00:07:40.520Z,28.80
2018-11-11T00:10:09.617Z,27.90
2018-11-11T00:12:39.175Z,29.60
2018-11-11T00:15:10.074Z,26.80
2018-11-11T00:17:39.053Z,25.00
2018-11-11T00:20:08.916Z,24.43
2018-11-11T00:22:37.909Z,25.77
2018-11-11T00:25:07.528Z,25.60
2018-11-11T00:27:37.007Z,24.53
2018-11-11T00:30:07.557Z,22.17
2018-11-11T00:32:36.385Z,22.60
2018-11-11T00:35:05.752Z,23.70
2018-11-11T00:37:34.523Z,23.63
2018-11-11T00:40:03.523Z,24.73
2018-11-11T00:42:32.451Z,22.97
2018-11-11T00:45:01.274Z,24.03
2018-11-11T00:47:30.154Z,23.90
2018-11-11T00:49:59.028Z,24.57
2018-11-11T00:52:27.916Z,24.67
2018-11-11T00:54:56.764Z,23.80
2018-11-11T00:57:26.713Z,24.03
2018-11-11T00:59:55.580Z,22.33
2018-11-11T01:02:24.449Z,23.37
2018-11-11T01:04:53.276Z,23.23
2018-11-11T01:07:22.093Z,21.67
2018-11-11T01:09:50.851Z,20.93
2018-11-11T01:12:19.731Z,21.73
2018-11-11T01:14:48.529Z,22.50
2018-11-11T01:17:17.293Z,20.50
2018-11-11T01:19:46.053Z,21.17
2018-11-11T01:22:14.909Z,20.20
2018-11-11T01:24:43.864Z,20.63
2018-11-11T01:27:12.700Z,20.07
2018-11-11T01:29:41.490Z,21.00
2018-11-11T01:32:10.280Z,21.57
2018-11-11T01:34:39.069Z,19.77
2018-11-11T01:37:07.977Z,20.13
2018-11-11T01:39:37.064Z,21.83
2018-11-11T01:42:06.180Z,19.20
2018-11-11T01:44:35.027Z,20.80
2018-11-11T01:47:03.928Z,20.60
2018-11-11T01:49:32.732Z,22.03
2018-11-11T01:52:01.507Z,19.70
2018-11-11T01:54:30.384Z,19.80
2018-11-11T01:56:59.291Z,19.07
2018-11-11T01:59:28.122Z,20.53
2018-11-11T02:01:57.133Z,20.07
2018-11-11T02:04:26.148Z,20.97
2018-11-11T02:06:54.868Z,21.07
2018-11-11T02:09:23.724Z,21.37
2018-11-11T02:11:52.546Z,20.40
2018-11-11T02:14:21.483Z,19.73
2018-11-11T02:16:50.219Z,21.90
2018-11-11T02:19:18.996Z,21.07
2018-11-11T02:21:47.958Z,22.53
2018-11-11T02:24:16.705Z,21.27
2018-11-11T02:26:45.447Z,21.93
2018-11-11T02:29:15.013Z,20.60
2018-11-11T02:31:43.784Z,22.90
2018-11-11T02:34:12.553Z,22.23
2018-11-11T02:36:41.345Z,23.53
2018-11-11T02:39:10.450Z,24.37
2018-11-11T02:41:39.183Z,23.23
2018-11-11T02:44:07.936Z,24.47
2018-11-11T02:46:36.670Z,25.23
2018-11-11T02:49:05.810Z,22.97
2018-11-11T02:51:34.568Z,22.97
2018-11-11T02:54:03.339Z,22.13
2018-11-11T02:56:32.265Z,23.53
2018-11-11T02:59:01.267Z,22.83
2018-11-11T03:01:30.325Z,22.83
2018-11-11T03:03:59.351Z,24.07
2018-11-11T03:06:28.174Z,23.03
2018-11-11T03:08:56.961Z,23.70
2018-11-11T03:11:25.883Z,24.20
2018-11-11T03:13:54.621Z,23.90
2018-11-11T03:16:23.328Z,21.97
2018-11-11T03:18:52.254Z,22.60
2018-11-11T03:21:21.053Z,21.20
2018-11-11T03:23:49.794Z,21.80
2018-11-11T03:26:18.574Z,20.67
2018-11-11T03:28:47.332Z,18.93
2018-11-11T03:31:16.979Z,19.97
2018-11-11T03:33:45.755Z,19.83
2018-11-11T03:36:14.542Z,19.77
2018-11-11T03:38:43.393Z,20.17
2018-11-11T03:41:12.291Z,19.27
2018-11-11T03:43:41.049Z,21.13
2018-11-11T03:46:12.666Z,21.00
2018-11-11T03:48:41.521Z,22.37
2018-11-11T03:51:10.294Z,21.13
2018-11-11T03:53:39.335Z,22.07
2018-11-11T03:56:08.090Z,22.37
2018-11-11T03:58:36.881Z,22.97
2018-11-11T04:01:06.071Z,20.97
2018-11-11T04:03:34.756Z,25.13
2018-11-11T04:06:03.844Z,24.17
2018-11-11T04:08:32.578Z,25.33
2018-11-11T04:11:01.329Z,23.47
2018-11-11T04:13:30.159Z,24.83
2018-11-11T04:15:58.897Z,25.93
2018-11-11T04:18:27.716Z,23.97
2018-11-11T04:20:56.593Z,24.87
2018-11-11T04:23:25.486Z,25.20
2018-11-11T04:25:54.236Z,25.00
2018-11-11T04:28:22.957Z,23.00
2018-11-11T04:30:51.676Z,23.10
2018-11-11T04:33:20.627Z,21.53
2018-11-11T04:35:49.310Z,22.90
2018-11-11T04:38:18.001Z,21.73
2018-11-11T04:40:46.716Z,21.30
2018-11-11T04:43:15.469Z,21.60
2018-11-11T04:45:44.159Z,21.00
2018-11-11T04:48:12.823Z,21.90
2018-11-11T04:50:41.638Z,21.00
2018-11-11T04:53:10.356Z,20.03
2018-11-11T04:55:39.108Z,21.00
2018-11-11T04:58:07.805Z,21.73
2018-11-11T05:00:36.541Z,21.33
2018-11-11T05:03:05.879Z,21.13
2018-11-11T05:05:34.612Z,21.03
2018-11-11T05:08:03.382Z,18.93
2018-11-11T05:10:32.307Z,21.20
2018-11-11T05:13:01.253Z,18.63
2018-11-11T05:15:29.926Z,20.63
2018-11-11T05:17:58.649Z,20.87
2018-11-11T05:20:27.401Z,21.77
2018-11-11T05:22:56.230Z,21.23
2018-11-11T05:25:25.113Z,22.87
2018-11-11T05:27:54.192Z,22.33
2018-11-11T05:30:25.713Z,23.70
2018-11-11T05:32:54.415Z,23.60
2018-11-11T05:35:23.245Z,24.83
2018-11-11T05:37:51.971Z,23.90
2018-11-11T05:40:20.758Z,24.53
2018-11-11T05:42:49.457Z,24.90
2018-11-11T05:45:18.155Z,24.97
2018-11-11T05:47:46.867Z,25.70
2018-11-11T05:50:16.830Z,21.80
2018-11-11T05:52:46.660Z,22.50
2018-11-11T05:55:15.658Z,21.70
2018-11-11T05:57:44.376Z,20.60
2018-11-11T06:00:15.486Z,18.87
2018-11-11T06:02:44.615Z,19.57
2018-11-11T06:05:14.584Z,19.43
2018-11-11T06:07:43.285Z,19.90
2018-11-11T06:10:13.387Z,20.90
2018-11-11T06:12:42.176Z,21.40
2018-11-11T06:15:12.186Z,19.37
2018-11-11T06:17:41.003Z,21.30
2018-11-11T06:20:12.152Z,19.07
2018-11-11T06:22:40.969Z,22.70
2018-11-11T06:25:10.245Z,22.80
2018-11-11T06:27:39.008Z,21.67
2018-11-11T06:30:08.658Z,22.83
2018-11-11T06:32:37.564Z,25.37
2018-11-11T06:35:06.700Z,24.00
2018-11-11T06:37:35.489Z,25.47
2018-11-11T06:40:04.647Z,22.30
2018-11-11T06:42:33.603Z,22.53
2018-11-11T06:45:02.361Z,23.53
2018-11-11T06:47:31.167Z,22.43
2018-11-11T06:50:00.000Z,22.50
2018-11-11T06:52:28.744Z,22.13
2018-11-11T06:54:57.553Z,20.30
2018-11-11T06:57:26.511Z,21.30
2018-11-11T06:59:55.249Z,20.20
2018-11-11T07:02:30.976Z,18.67
2018-11-11T07:04:59.946Z,17.77
2018-11-11T07:07:28.807Z,15.97
2018-11-11T07:09:57.648Z,15.10
2018-11-11T07:12:26.731Z,14.43
2018-11-11T07:14:55.533Z,14.10
2018-11-11T07:17:24.725Z,13.30
2018-11-11T07:19:53.445Z,10.63
2018-11-11T07:22:22.191Z,11.47
2018-11-11T07:24:50.937Z,11.67
2018-11-11T07:27:19.813Z,12.17
2018-11-11T07:29:48.589Z,10.23
2018-11-11T07:32:17.389Z,11.83
2018-11-11T07:34:46.129Z,11.23
2018-11-11T07:37:14.934Z,10.93
2018-11-11T07:39:43.695Z,10.70
2018-11-11T07:42:12.568Z,10.60
2018-11-11T07:44:41.456Z,10.23
2018-11-11T07:47:10.289Z,9.93
2018-11-11T07:49:39.149Z,10.63
2018-11-11T07:52:08.364Z,11.00
2018-11-11T07:54:37.076Z,11.27
2018-11-11T07:57:06.034Z,11.33
2018-11-11T07:59:34.772Z,12.53
2018-11-11T08:02:03.835Z,11.13
2018-11-11T08:04:32.760Z,13.00
2018-11-11T08:07:02.067Z,13.23
2018-11-11T08:09:34.899Z,14.03
2018-11-11T08:12:05.417Z,12.00
2018-11-11T08:14:35.264Z,12.90
2018-11-11T08:17:04.479Z,12.13
2018-11-11T08:19:33.564Z,11.23
2018-11-11T08:22:02.430Z,9.73
2018-11-11T08:24:31.216Z,12.00
2018-11-11T08:26:59.973Z,11.70
2018-11-11T08:29:28.841Z,11.70
2018-11-11T08:31:57.629Z,11.20
2018-11-11T08:34:26.488Z,12.70
2018-11-11T08:36:55.687Z,12.60
2018-11-11T08:39:24.592Z,13.13
2018-11-11T08:41:53.470Z,14.07
2018-11-11T08:44:22.350Z,13.87
2018-11-11T08:46:51.128Z,15.20
2018-11-11T08:49:19.944Z,15.57
2018-11-11T08:51:48.705Z,13.93
2018-11-11T08:54:17.596Z,15.37
2018-11-11T08:56:46.480Z,14.40
2018-11-11T08:59:15.348Z,15.17
2018-11-11T09:01:44.164Z,14.13
2018-11-11T09:04:13.206Z,13.83
2018-11-11T09:06:42.019Z,14.77
2018-11-11T09:09:10.958Z,14.50
2018-11-11T09:11:41.967Z,14.53
2018-11-11T09:14:10.892Z,15.53
2018-11-11T09:16:39.644Z,14.57
2018-11-11T09:19:08.472Z,14.60
2018-11-11T09:21:37.421Z,14.17
2018-11-11T09:24:06.336Z,13.90
2018-11-11T09:26:35.242Z,13.83
2018-11-11T09:29:04.003Z,14.47
2018-11-11T09:31:32.857Z,13.70
2018-11-11T09:34:01.796Z,13.87
2018-11-11T09:36:30.646Z,14.50
2018-11-11T09:38:59.614Z,13.40
2018-11-11T09:41:28.560Z,14.90
2018-11-11T09:43:57.525Z,13.30
2018-11-11T09:46:26.779Z,13.90
2018-11-11T09:48:55.645Z,14.70
2018-11-11T09:51:25.047Z,13.90
2018-11-11T09:53:53.986Z,13.50
2018-11-11T09:56:22.909Z,14.20
2018-11-11T09:58:51.733Z,13.93
2018-11-11T10:01:20.775Z,14.90
2018-11-11T10:04:12.091Z,15.10
2018-11-11T10:06:48.375Z,13.80
2018-11-11T10:09:26.627Z,14.00
2018-11-11T10:12:07.895Z,15.00
2018-11-11T10:14:44.673Z,14.10
2018-11-11T10:17:18.690Z,13.87
2018-11-11T10:19:51.509Z,13.73
2018-11-11T10:22:25.044Z,13.73
2018-11-11T10:24:59.898Z,14.33
2018-11-11T10:27:36.673Z,15.10
2018-11-11T10:30:10.595Z,14.00
2018-11-11T10:32:58.583Z,15.10
2018-11-11T10:35:34.001Z,13.67
2018-11-11T10:38:08.699Z,14.50
2018-11-11T10:40:48.675Z,14.90
2018-11-11T10:43:23.974Z,14.50
2018-11-11T10:45:57.924Z,16.30
2018-11-11T10:48:31.167Z,16.67
2018-11-11T10:51:01.953Z,16.63
2018-11-11T10:53:31.147Z,17.27
2018-11-11T10:55:59.906Z,17.37
2018-11-11T10:58:29.153Z,16.07
2018-11-11T11:01:03.254Z,19.17
2018-11-11T11:03:33.396Z,16.20
2018-11-11T11:06:02.914Z,15.80
2018-11-11T11:08:31.873Z,17.50
2018-11-11T11:11:00.845Z,17.37
2018-11-11T11:13:30.234Z,17.63
2018-11-11T11:15:59.612Z,17.20
2018-11-11T11:18:28.479Z,17.60
2018-11-11T11:20:57.260Z,16.83
2018-11-11T11:23:26.412Z,17.83
2018-11-11T11:25:55.298Z,18.43
2018-11-11T11:28:24.432Z,16.37
2018-11-11T11:30:53.278Z,15.90
2018-11-11T11:33:22.191Z,17.33
2018-11-11T11:35:51.172Z,15.30
2018-11-11T11:38:20.219Z,15.53
2018-11-11T11:40:49.069Z,16.10
2018-11-11T11:43:18.030Z,16.57
2018-11-11T11:45:46.862Z,17.13
2018-11-11T11:48:15.690Z,16.93
2018-11-11T11:50:44.429Z,16.30
2018-11-11T11:53:13.273Z,16.70
2018-11-11T11:55:42.302Z,15.83
2018-11-11T11:58:20.512Z,14.70
2018-11-11T12:00:49.397Z,15.07
2018-11-11T12:03:18.494Z,14.80
2018-11-11T12:05:47.566Z,15.87
2018-11-11T12:08:16.399Z,13.80
2018-11-11T12:10:45.294Z,16.90
2018-11-11T12:13:14.884Z,15.50
2018-11-11T12:15:43.965Z,14.00
2018-11-11T12:18:12.993Z,14.63
2018-11-11T12:20:42.476Z,15.03
2018-11-11T12:23:11.823Z,14.37
2018-11-11T12:25:41.181Z,14.37
2018-11-11T12:28:10.582Z,12.83
2018-11-11T12:30:40.226Z,14.13
2018-11-11T12:33:09.879Z,14.97
2018-11-11T12:35:38.759Z,13.60
2018-11-11T12:38:09.337Z,15.97
2018-11-11T12:40:38.483Z,14.57
2018-11-11T12:43:07.418Z,13.13
2018-11-11T12:45:36.289Z,13.50
2018-11-11T12:48:05.376Z,13.37
2018-11-11T12:50:34.315Z,14.50
2018-11-11T12:53:03.250Z,13.30
2018-11-11T12:55:32.123Z,13.83
2018-11-11T12:58:01.133Z,13.30
2018-11-11T13:00:30.140Z,14.00
2018-11-11T13:02:58.999Z,13.37
2018-11-11T13:05:27.924Z,12.57
2018-11-11T13:07:56.830Z,12.07
2018-11-11T13:10:25.937Z,13.40
2018-11-11T13:12:54.835Z,11.63
2018-11-11T13:15:23.794Z,11.77
2018-11-11T13:17:52.704Z,11.70
2018-11-11T13:20:21.813Z,9.60
2018-11-11T13:22:51.139Z,10.90
2018-11-11T13:25:20.062Z,10.23
2018-11-11T13:27:49.312Z,11.20
2018-11-11T13:30:18.335Z,10.20
2018-11-11T13:32:47.503Z,10.60
2018-11-11T13:35:17.526Z,9.00
2018-11-11T13:37:46.752Z,8.87
2018-11-11T13:40:16.989Z,9.27
2018-11-11T13:42:45.948Z,10.50
2018-11-11T13:45:17.221Z,10.00
2018-11-11T13:47:46.930Z,10.70
2018-11-11T13:50:20.094Z,9.67
2018-11-11T13:52:49.219Z,9.47
2018-11-11T13:55:19.342Z,8.40
2018-11-11T13:57:48.897Z,8.70
2018-11-11T14:00:25.117Z,8.10
2018-11-11T14:02:54.108Z,8.00
2018-11-11T14:05:23.167Z,7.90
2018-11-11T14:07:52.552Z,8.63
2018-11-11T14:10:21.442Z,9.67
2018-11-11T14:12:50.513Z,8.60
2018-11-11T14:15:25.503Z,8.70
2018-11-11T14:17:55.658Z,8.20
2018-11-11T14:20:25.449Z,8.67
2018-11-11T14:22:55.404Z,8.00
2018-11-11T14:25:27.751Z,7.53
2018-11-11T14:27:56.784Z,7.70
2018-11-11T14:30:26.747Z,6.67
2018-11-11T14:32:56.802Z,6.07
2018-11-11T14:35:26.256Z,6.60
2018-11-11T14:37:55.115Z,5.33
2018-11-11T14:40:25.713Z,5.60
2018-11-11T14:42:54.578Z,5.80
2018-11-11T14:45:23.915Z,6.53
2018-11-11T14:47:54.263Z,5.73
2018-11-11T14:50:24.014Z,5.07
2018-11-11T14:52:53.128Z,4.70
2018-11-11T14:55:23.618Z,5.50
2018-11-11T14:57:52.591Z,5.80
2018-11-11T15:00:24.707Z,5.37
2018-11-11T15:03:06.303Z,4.87
2018-11-11T15:05:35.278Z,4.50
2018-11-11T15:08:04.778Z,4.93
2018-11-11T15:10:33.722Z,5.20
2018-11-11T15:13:02.760Z,5.57
2018-11-11T15:15:31.564Z,5.50
2018-11-11T15:18:01.494Z,6.00
2018-11-11T15:20:30.337Z,5.80
2018-11-11T15:22:59.249Z,6.13
2018-11-11T15:25:29.123Z,6.00
2018-11-11T15:27:58.272Z,6.43
2018-11-11T15:30:29.002Z,6.30
2018-11-11T15:32:58.609Z,7.23
2018-11-11T15:35:27.654Z,7.00
2018-11-11T15:37:56.652Z,6.73
2018-11-11T15:40:30.045Z,7.20
2018-11-11T15:42:59.085Z,7.27
2018-11-11T15:45:29.512Z,7.57
2018-11-11T15:47:59.453Z,7.57
2018-11-11T15:50:29.829Z,9.47
2018-11-11T15:53:00.028Z,7.77
2018-11-11T15:55:30.198Z,7.50
2018-11-11T15:57:59.245Z,8.50
2018-11-11T16:00:29.513Z,8.20
2018-11-11T16:02:58.480Z,8.30
2018-11-11T16:05:28.060Z,9.00
2018-11-11T16:07:58.037Z,8.20
2018-11-11T16:10:28.520Z,8.87
2018-11-11T16:12:57.513Z,8.67
2018-11-11T16:15:31.283Z,10.47
2018-11-11T16:18:01.701Z,10.63
2018-11-11T16:20:31.005Z,9.77
2018-11-11T16:23:01.292Z,9.33
2018-11-11T16:25:32.705Z,10.90
2018-11-11T16:28:01.592Z,11.37
2018-11-11T16:30:32.553Z,11.67
2018-11-11T16:33:01.941Z,10.77
2018-11-11T16:35:31.304Z,12.27
2018-11-11T16:38:00.850Z,11.40
2018-11-11T16:40:30.999Z,14.00
2018-11-11T16:43:00.690Z,13.13
2018-11-11T16:45:30.365Z,13.20
2018-11-11T16:47:59.425Z,13.53
2018-11-11T16:50:30.036Z,14.53
2018-11-11T16:53:00.713Z,14.43
2018-11-11T16:55:30.891Z,14.73
2018-11-11T16:58:02.411Z,16.37
2018-11-11T17:00:32.703Z,16.00
2018-11-11T17:03:02.442Z,16.27
2018-11-11T17:05:32.712Z,16.53
2018-11-11T17:08:01.628Z,17.60
2018-11-11T17:10:32.190Z,17.60
2018-11-11T17:13:02.710Z,16.33
2018-11-11T17:15:32.344Z,16.53
2018-11-11T17:18:01.175Z,16.67
2018-11-11T17:20:30.063Z,17.50
2018-11-11T17:23:00.189Z,17.90
2018-11-11T17:25:29.311Z,19.43
2018-11-11T17:27:58.213Z,18.37
2018-11-11T17:30:28.515Z,18.20
2018-11-11T17:32:58.076Z,18.30
2018-11-11T17:35:27.141Z,21.30
2018-11-11T17:37:55.948Z,18.13
2018-11-11T17:40:27.114Z,20.00
2018-11-11T17:42:56.352Z,19.67
2018-11-11T17:45:25.646Z,21.47
2018-11-11T17:47:54.785Z,20.60
2018-11-11T17:50:27.190Z,21.97
2018-11-11T17:52:56.087Z,23.20
2018-11-11T17:55:26.068Z,23.23
2018-11-11T17:57:55.004Z,23.07
2018-11-11T18:00:26.128Z,22.63
2018-11-11T18:02:55.588Z,22.83
2018-11-11T18:05:25.806Z,24.33
2018-11-11T18:07:54.927Z,25.07
2018-11-11T18:10:24.824Z,23.70
2018-11-11T18:12:53.770Z,24.03
2018-11-11T18:15:24.941Z,22.33
2018-11-11T18:17:53.867Z,23.00
2018-11-11T18:20:24.988Z,22.87
2018-11-11T18:22:54.744Z,25.23
2018-11-11T18:25:23.856Z,23.80
2018-11-11T18:27:52.940Z,24.10
2018-11-11T18:30:24.445Z,22.00
2018-11-11T18:32:53.290Z,23.50
2018-11-11T18:35:22.445Z,24.40
2018-11-11T18:37:51.359Z,24.33
2018-11-11T18:40:21.737Z,23.87
2018-11-11T18:42:50.619Z,25.33
2018-11-11T18:45:21.187Z,24.77
2018-11-11T18:47:50.802Z,28.57
2018-11-11T18:50:22.008Z,27.13
2018-11-11T18:52:51.074Z,27.87
2018-11-11T18:55:20.438Z,26.93
2018-11-11T18:57:49.404Z,29.03
2018-11-11T19:00:20.329Z,27.87
2018-11-11T19:02:50.356Z,29.30
2018-11-11T19:05:20.076Z,29.07
2018-11-11T19:07:49.347Z,29.60
2018-11-11T19:10:19.675Z,30.70
2018-11-11T19:12:49.595Z,28.77
2018-11-11T19:15:19.544Z,31.20
2018-11-11T19:17:49.179Z,33.17
2018-11-11T19:20:19.198Z,31.30
2018-11-11T19:22:48.032Z,31.80
2018-11-11T19:25:19.272Z,31.10
2018-11-11T19:27:49.193Z,31.83
2018-11-11T19:30:19.104Z,31.17
2018-11-11T19:32:48.753Z,31.00
2018-11-11T19:35:18.054Z,32.67
2018-11-11T19:37:48.175Z,31.13
2018-11-11T19:40:18.804Z,29.20
2018-11-11T19:42:47.853Z,29.80
2018-11-11T19:45:19.094Z,32.37
2018-11-11T19:47:47.968Z,30.87
2018-11-11T19:50:18.123Z,30.80
2018-11-11T19:52:48.112Z,30.10
2018-11-11T19:55:18.392Z,30.83
2018-11-11T19:57:47.342Z,30.47
2018-11-11T20:00:18.884Z,31.43
2018-11-11T20:02:49.042Z,31.00
2018-11-11T20:05:19.013Z,30.47
2018-11-11T20:07:48.819Z,31.50
2018-11-11T20:10:18.609Z,32.87
2018-11-11T20:12:47.584Z,30.30
2018-11-11T20:15:18.343Z,30.73
2018-11-11T20:17:47.755Z,30.00
2018-11-11T20:20:18.803Z,31.27
2018-11-11T20:22:47.983Z,30.80
2018-11-11T20:25:18.248Z,29.97
2018-11-11T20:27:47.329Z,29.83
2018-11-11T20:30:18.559Z,31.33
2018-11-11T20:32:47.398Z,29.60
2018-11-11T20:35:18.803Z,31.43
2018-11-11T20:37:47.747Z,30.20
2018-11-11T20:40:18.201Z,30.87
2018-11-11T20:42:47.611Z,30.80
2018-11-11T20:45:18.256Z,30.37
2018-11-11T20:47:47.865Z,29.33
2018-11-11T20:50:21.291Z,30.73
2018-11-11T20:52:51.878Z,29.67
2018-11-11T20:55:21.186Z,30.30
2018-11-11T20:57:50.151Z,29.30
2018-11-11T21:00:23.213Z,32.43
2018-11-11T21:02:52.082Z,30.20
2018-11-11T21:05:22.482Z,27.93
2018-11-11T21:07:51.402Z,30.00
2018-11-11T21:10:21.629Z,32.20
2018-11-11T21:12:50.484Z,30.27
2018-11-11T21:15:21.532Z,29.10
2018-11-11T21:17:50.520Z,29.60
2018-11-11T21:20:21.110Z,29.50
2018-11-11T21:22:49.913Z,33.70
2018-11-11T21:25:18.926Z,28.70
2018-11-11T21:27:48.465Z,28.97
2018-11-11T21:30:22.373Z,29.40
2018-11-11T21:32:51.730Z,28.23
2018-11-11T21:35:20.685Z,28.90
2018-11-11T21:37:49.716Z,29.63
2018-11-11T21:40:20.792Z,26.87
2018-11-11T21:42:50.216Z,28.47
2018-11-11T21:45:20.424Z,29.93
2018-11-11T21:47:49.319Z,28.87
2018-11-11T21:50:20.869Z,29.07
2018-11-11T21:52:55.513Z,28.33
2018-11-11T21:55:24.335Z,30.30
2018-11-11T21:57:53.233Z,28.93
2018-11-11T22:00:22.565Z,29.40
2018-11-11T22:02:51.399Z,28.13
2018-11-11T22:05:20.290Z,29.73
2018-11-11T22:07:49.099Z,28.80
2018-11-11T22:10:18.635Z,27.40
2018-11-11T22:12:47.514Z,28.23
2018-11-11T22:15:16.496Z,29.50
2018-11-11T22:17:45.441Z,29.53
2018-11-11T22:20:14.257Z,28.10
2018-11-11T22:22:43.026Z,28.23
2018-11-11T22:25:11.773Z,27.17
2018-11-11T22:27:40.616Z,30.00
2018-11-11T22:33:02.628Z,27.87
2018-11-11T22:35:31.591Z,27.20
2018-11-11T22:38:00.483Z,29.30
2018-11-11T22:40:29.826Z,28.03
2018-11-11T22:42:58.732Z,28.60
2018-11-11T22:45:28.646Z,30.70
2018-11-11T22:47:57.502Z,29.43
2018-11-11T22:50:27.197Z,29.20
2018-11-11T22:52:56.083Z,30.10
2018-11-11T22:55:24.916Z,27.57
2018-11-11T22:57:54.121Z,29.53
2018-11-11T23:00:28.256Z,29.00
2018-11-11T23:02:57.249Z,30.40
2018-11-11T23:05:26.282Z,30.50
2018-11-11T23:07:55.119Z,27.47
2018-11-11T23:10:24.455Z,28.20
2018-11-11T23:12:53.294Z,30.47
2018-11-11T23:15:22.768Z,29.80
2018-11-11T23:17:51.617Z,30.50
2018-11-11T23:20:21.683Z,31.00
2018-11-11T23:22:50.475Z,30.63
2018-11-11T23:25:20.587Z,28.33
2018-11-11T23:27:49.465Z,30.83
2018-11-11T23:30:20.689Z,30.20
2018-11-11T23:32:49.866Z,29.60
2018-11-11T23:35:18.947Z,29.17
2018-11-11T23:37:48.259Z,32.70
2018-11-11T23:40:18.179Z,32.90
2018-11-11T23:42:47.645Z,32.57
2018-11-11T23:45:16.811Z,31.97
2018-11-11T23:47:45.768Z,30.60
2018-11-11T23:50:17.793Z,32.70
2018-11-11T23:52:47.036Z,33.73
2018-11-11T23:55:17.280Z,33.00
2018-11-11T23:57:46.110Z,32.50
